sensor_id;sensor_type;location;lat;lon;timestamp;P1;durP1;ratioP1;P2;durP2;ratioP2
13408;SDS011;6775;49.574;11.170;2023-01-24T00:01:14;9.00;;;6.27;;
13408;SDS011;6775;49.574;11.170;2023-01-24T00:03:42;9.93;;;6.40;;
13408;SDS011;6775;49.574;11.170;2023-01-24T00:06:09;9.53;;;6.40;;
13408;SDS011;6775;49.574;11.170;2023-01-24T00:08:39;10.33;;;6.53;;
13408;SDS011;6775;49.574;11.170;2023-01-24T00:11:07;10.20;;;6.43;;
13408;SDS011;6775;49.574;11.170;2023-01-24T00:13:36;8.93;;;6.20;;
13408;SDS011;6775;49.574;11.170;2023-01-24T00:16:05;10.00;;;5.83;;
13408;SDS011;6775;49.574;11.170;2023-01-24T00:18:34;9.60;;;6.27;;
13408;SDS011;6775;49.574;11.170;2023-01-24T00:21:03;8.03;;;5.80;;
13408;SDS011;6775;49.574;11.170;2023-01-24T00:23:35;11.53;;;6.60;;
13408;SDS011;6775;49.574;11.170;2023-01-24T00:26:05;10.50;;;6.30;;
13408;SDS011;6775;49.574;11.170;2023-01-24T00:28:33;9.63;;;6.47;;
13408;SDS011;6775;49.574;11.170;2023-01-24T00:31:01;10.30;;;6.13;;
13408;SDS011;6775;49.574;11.170;2023-01-24T00:33:30;9.47;;;6.17;;
13408;SDS011;6775;49.574;11.170;2023-01-24T00:35:58;9.27;;;6.13;;
13408;SDS011;6775;49.574;11.170;2023-01-24T00:38:27;9.33;;;6.23;;
13408;SDS011;6775;49.574;11.170;2023-01-24T00:40:56;7.90;;;5.43;;
13408;SDS011;6775;49.574;11.170;2023-01-24T00:43:25;10.20;;;6.07;;
13408;SDS011;6775;49.574;11.170;2023-01-24T00:45:53;7.67;;;5.60;;
13408;SDS011;6775;49.574;11.170;2023-01-24T00:48:22;8.87;;;5.90;;
13408;SDS011;6775;49.574;11.170;2023-01-24T00:50:50;10.67;;;5.70;;
13408;SDS011;6775;49.574;11.170;2023-01-24T00:53:18;8.50;;;5.40;;
13408;SDS011;6775;49.574;11.170;2023-01-24T00:55:46;8.47;;;5.37;;
13408;SDS011;6775;49.574;11.170;2023-01-24T00:58:16;9.37;;;6.00;;
13408;SDS011;6775;49.574;11.170;2023-01-24T01:00:45;9.57;;;6.13;;
13408;SDS011;6775;49.574;11.170;2023-01-24T01:03:16;8.93;;;5.33;;
13408;SDS011;6775;49.574;11.170;2023-01-24T01:05:45;9.67;;;6.20;;
13408;SDS011;6775;49.574;11.170;2023-01-24T01:08:13;9.07;;;5.60;;
13408;SDS011;6775;49.574;11.170;2023-01-24T01:10:41;8.27;;;5.67;;
13408;SDS011;6775;49.574;11.170;2023-01-24T01:13:11;10.50;;;5.57;;
13408;SDS011;6775;49.574;11.170;2023-01-24T01:15:39;11.20;;;6.67;;
13408;SDS011;6775;49.574;11.170;2023-01-24T01:18:08;10.23;;;5.97;;
13408;SDS011;6775;49.574;11.170;2023-01-24T01:20:36;9.17;;;5.17;;
13408;SDS011;6775;49.574;11.170;2023-01-24T01:23:04;9.17;;;5.87;;
13408;SDS011;6775;49.574;11.170;2023-01-24T01:25:32;8.97;;;5.57;;
13408;SDS011;6775;49.574;11.170;2023-01-24T01:28:00;9.17;;;6.10;;
13408;SDS011;6775;49.574;11.170;2023-01-24T01:30:28;9.23;;;5.07;;
13408;SDS011;6775;49.574;11.170;2023-01-24T01:32:55;8.93;;;5.50;;
13408;SDS011;6775;49.574;11.170;2023-01-24T01:35:25;9.63;;;6.00;;
13408;SDS011;6775;49.574;11.170;2023-01-24T01:37:52;8.10;;;5.50;;
13408;SDS011;6775;49.574;11.170;2023-01-24T01:40:20;11.93;;;6.00;;
13408;SDS011;6775;49.574;11.170;2023-01-24T01:42:49;8.83;;;5.47;;
13408;SDS011;6775;49.574;11.170;2023-01-24T01:45:35;7.53;;;5.17;;
13408;SDS011;6775;49.574;11.170;2023-01-24T01:48:11;9.80;;;6.30;;
13408;SDS011;6775;49.574;11.170;2023-01-24T01:50:54;7.93;;;5.33;;
13408;SDS011;6775;49.574;11.170;2023-01-24T01:53:27;8.97;;;5.70;;
13408;SDS011;6775;49.574;11.170;2023-01-24T01:55:59;10.00;;;5.10;;
13408;SDS011;6775;49.574;11.170;2023-01-24T01:58:32;10.13;;;6.47;;
13408;SDS011;6775;49.574;11.170;2023-01-24T02:01:00;9.33;;;6.20;;
13408;SDS011;6775;49.574;11.170;2023-01-24T02:03:34;8.80;;;5.47;;
13408;SDS011;6775;49.574;11.170;2023-01-24T02:06:13;9.33;;;5.33;;
13408;SDS011;6775;49.574;11.170;2023-01-24T02:08:49;11.50;;;6.50;;
13408;SDS011;6775;49.574;11.170;2023-01-24T02:11:20;11.20;;;5.57;;
13408;SDS011;6775;49.574;11.170;2023-01-24T02:14:08;11.10;;;6.10;;
13408;SDS011;6775;49.574;11.170;2023-01-24T02:16:55;10.60;;;5.93;;
13408;SDS011;6775;49.574;11.170;2023-01-24T02:19:34;12.10;;;7.07;;
13408;SDS011;6775;49.574;11.170;2023-01-24T02:22:15;9.43;;;6.13;;
13408;SDS011;6775;49.574;11.170;2023-01-24T02:24:49;10.90;;;5.27;;
13408;SDS011;6775;49.574;11.170;2023-01-24T02:27:27;9.17;;;5.73;;
13408;SDS011;6775;49.574;11.170;2023-01-24T02:29:55;9.33;;;5.17;;
13408;SDS011;6775;49.574;11.170;2023-01-24T02:32:24;10.23;;;5.93;;
13408;SDS011;6775;49.574;11.170;2023-01-24T02:34:52;11.03;;;6.10;;
13408;SDS011;6775;49.574;11.170;2023-01-24T02:37:20;11.10;;;5.17;;
13408;SDS011;6775;49.574;11.170;2023-01-24T02:39:50;9.80;;;5.97;;
13408;SDS011;6775;49.574;11.170;2023-01-24T02:42:22;9.10;;;5.47;;
13408;SDS011;6775;49.574;11.170;2023-01-24T02:44:55;8.77;;;5.50;;
13408;SDS011;6775;49.574;11.170;2023-01-24T02:47:29;10.60;;;5.97;;
13408;SDS011;6775;49.574;11.170;2023-01-24T02:49:59;12.03;;;6.23;;
13408;SDS011;6775;49.574;11.170;2023-01-24T02:52:27;10.13;;;6.70;;
13408;SDS011;6775;49.574;11.170;2023-01-24T02:55:13;7.67;;;5.00;;
13408;SDS011;6775;49.574;11.170;2023-01-24T02:57:41;9.57;;;6.13;;
13408;SDS011;6775;49.574;11.170;2023-01-24T03:00:28;7.93;;;5.20;;
13408;SDS011;6775;49.574;11.170;2023-01-24T03:02:56;11.37;;;6.33;;
13408;SDS011;6775;49.574;11.170;2023-01-24T03:05:24;7.97;;;5.30;;
13408;SDS011;6775;49.574;11.170;2023-01-24T03:07:51;12.67;;;6.83;;
13408;SDS011;6775;49.574;11.170;2023-01-24T03:10:19;8.17;;;5.47;;
13408;SDS011;6775;49.574;11.170;2023-01-24T03:12:47;10.00;;;5.50;;
13408;SDS011;6775;49.574;11.170;2023-01-24T03:15:34;8.97;;;5.30;;
13408;SDS011;6775;49.574;11.170;2023-01-24T03:18:19;9.03;;;5.30;;
13408;SDS011;6775;49.574;11.170;2023-01-24T03:21:05;9.77;;;5.23;;
13408;SDS011;6775;49.574;11.170;2023-01-24T03:23:50;7.37;;;4.93;;
13408;SDS011;6775;49.574;11.170;2023-01-24T03:26:35;9.77;;;5.77;;
13408;SDS011;6775;49.574;11.170;2023-01-24T03:29:21;9.50;;;4.83;;
13408;SDS011;6775;49.574;11.170;2023-01-24T03:32:08;8.20;;;4.73;;
13408;SDS011;6775;49.574;11.170;2023-01-24T03:34:53;8.07;;;5.30;;
13408;SDS011;6775;49.574;11.170;2023-01-24T03:37:22;6.23;;;4.40;;
13408;SDS011;6775;49.574;11.170;2023-01-24T03:40:06;7.07;;;4.30;;
13408;SDS011;6775;49.574;11.170;2023-01-24T03:42:39;6.83;;;4.37;;
13408;SDS011;6775;49.574;11.170;2023-01-24T03:45:14;6.87;;;4.40;;
13408;SDS011;6775;49.574;11.170;2023-01-24T03:47:46;6.33;;;4.40;;
13408;SDS011;6775;49.574;11.170;2023-01-24T03:50:21;5.87;;;3.90;;
13408;SDS011;6775;49.574;11.170;2023-01-24T03:53:07;6.57;;;3.93;;
13408;SDS011;6775;49.574;11.170;2023-01-24T03:55:35;8.00;;;4.07;;
13408;SDS011;6775;49.574;11.170;2023-01-24T03:58:04;8.83;;;3.60;;
13408;SDS011;6775;49.574;11.170;2023-01-24T04:00:32;6.83;;;4.43;;
13408;SDS011;6775;49.574;11.170;2023-01-24T04:03:02;5.23;;;3.27;;
13408;SDS011;6775;49.574;11.170;2023-01-24T04:05:31;5.67;;;3.53;;
13408;SDS011;6775;49.574;11.170;2023-01-24T04:07:59;4.97;;;3.40;;
13408;SDS011;6775;49.574;11.170;2023-01-24T04:10:28;5.10;;;3.23;;
13408;SDS011;6775;49.574;11.170;2023-01-24T04:12:56;5.40;;;3.67;;
13408;SDS011;6775;49.574;11.170;2023-01-24T04:15:24;3.80;;;3.33;;
13408;SDS011;6775;49.574;11.170;2023-01-24T04:17:54;3.67;;;2.93;;
13408;SDS011;6775;49.574;11.170;2023-01-24T04:20:24;4.60;;;3.50;;
13408;SDS011;6775;49.574;11.170;2023-01-24T04:22:53;5.57;;;3.20;;
13408;SDS011;6775;49.574;11.170;2023-01-24T04:25:21;5.70;;;3.40;;
13408;SDS011;6775;49.574;11.170;2023-01-24T04:27:49;5.77;;;3.77;;
13408;SDS011;6775;49.574;11.170;2023-01-24T04:30:17;4.37;;;2.87;;
13408;SDS011;6775;49.574;11.170;2023-01-24T04:32:45;5.23;;;3.60;;
13408;SDS011;6775;49.574;11.170;2023-01-24T04:35:15;5.17;;;2.90;;
13408;SDS011;6775;49.574;11.170;2023-01-24T04:37:45;4.80;;;3.40;;
13408;SDS011;6775;49.574;11.170;2023-01-24T04:40:13;4.93;;;3.00;;
13408;SDS011;6775;49.574;11.170;2023-01-24T04:42:41;5.37;;;3.07;;
13408;SDS011;6775;49.574;11.170;2023-01-24T04:45:09;4.77;;;3.20;;
13408;SDS011;6775;49.574;11.170;2023-01-24T04:47:38;4.50;;;3.20;;
13408;SDS011;6775;49.574;11.170;2023-01-24T04:50:06;4.27;;;3.27;;
13408;SDS011;6775;49.574;11.170;2023-01-24T04:52:35;5.47;;;3.83;;
13408;SDS011;6775;49.574;11.170;2023-01-24T04:55:05;4.47;;;3.00;;
13408;SDS011;6775;49.574;11.170;2023-01-24T04:57:33;4.07;;;2.50;;
13408;SDS011;6775;49.574;11.170;2023-01-24T05:00:00;4.13;;;3.00;;
13408;SDS011;6775;49.574;11.170;2023-01-24T05:02:31;4.57;;;3.17;;
13408;SDS011;6775;49.574;11.170;2023-01-24T05:04:59;4.33;;;3.17;;
13408;SDS011;6775;49.574;11.170;2023-01-24T05:07:27;3.73;;;2.63;;
13408;SDS011;6775;49.574;11.170;2023-01-24T05:09:55;5.00;;;3.13;;
13408;SDS011;6775;49.574;11.170;2023-01-24T05:12:24;3.83;;;2.47;;
13408;SDS011;6775;49.574;11.170;2023-01-24T05:14:52;4.10;;;2.50;;
13408;SDS011;6775;49.574;11.170;2023-01-24T05:17:20;3.33;;;2.70;;
13408;SDS011;6775;49.574;11.170;2023-01-24T05:19:47;3.90;;;2.47;;
13408;SDS011;6775;49.574;11.170;2023-01-24T05:22:15;3.83;;;2.90;;
13408;SDS011;6775;49.574;11.170;2023-01-24T05:24:43;3.57;;;2.43;;
13408;SDS011;6775;49.574;11.170;2023-01-24T05:27:11;3.87;;;2.20;;
13408;SDS011;6775;49.574;11.170;2023-01-24T05:29:40;3.27;;;2.63;;
13408;SDS011;6775;49.574;11.170;2023-01-24T05:32:08;4.07;;;2.33;;
13408;SDS011;6775;49.574;11.170;2023-01-24T05:34:35;3.63;;;3.13;;
13408;SDS011;6775;49.574;11.170;2023-01-24T05:37:03;5.27;;;2.93;;
13408;SDS011;6775;49.574;11.170;2023-01-24T05:39:31;4.90;;;3.20;;
13408;SDS011;6775;49.574;11.170;2023-01-24T05:41:59;5.27;;;2.70;;
13408;SDS011;6775;49.574;11.170;2023-01-24T05:44:27;5.40;;;3.20;;
13408;SDS011;6775;49.574;11.170;2023-01-24T05:46:56;4.50;;;2.90;;
13408;SDS011;6775;49.574;11.170;2023-01-24T05:49:23;3.67;;;2.70;;
13408;SDS011;6775;49.574;11.170;2023-01-24T05:51:51;3.80;;;2.60;;
13408;SDS011;6775;49.574;11.170;2023-01-24T05:54:19;4.53;;;2.77;;
13408;SDS011;6775;49.574;11.170;2023-01-24T05:56:47;3.83;;;2.70;;
13408;SDS011;6775;49.574;11.170;2023-01-24T05:59:15;4.43;;;3.00;;
13408;SDS011;6775;49.574;11.170;2023-01-24T06:01:42;3.57;;;2.80;;
13408;SDS011;6775;49.574;11.170;2023-01-24T06:04:12;3.63;;;2.57;;
13408;SDS011;6775;49.574;11.170;2023-01-24T06:06:39;4.07;;;2.53;;
13408;SDS011;6775;49.574;11.170;2023-01-24T06:09:07;3.77;;;3.00;;
13408;SDS011;6775;49.574;11.170;2023-01-24T06:11:35;3.93;;;2.33;;
13408;SDS011;6775;49.574;11.170;2023-01-24T06:14:03;4.20;;;2.60;;
13408;SDS011;6775;49.574;11.170;2023-01-24T06:16:31;3.67;;;2.77;;
13408;SDS011;6775;49.574;11.170;2023-01-24T06:18:59;3.87;;;2.57;;
13408;SDS011;6775;49.574;11.170;2023-01-24T06:21:34;5.03;;;2.97;;
13408;SDS011;6775;49.574;11.170;2023-01-24T06:24:10;4.00;;;2.70;;
13408;SDS011;6775;49.574;11.170;2023-01-24T06:26:44;3.80;;;2.50;;
13408;SDS011;6775;49.574;11.170;2023-01-24T06:29:12;4.43;;;2.30;;
13408;SDS011;6775;49.574;11.170;2023-01-24T06:31:43;4.03;;;2.60;;
13408;SDS011;6775;49.574;11.170;2023-01-24T06:34:31;3.30;;;2.67;;
13408;SDS011;6775;49.574;11.170;2023-01-24T06:37:12;3.37;;;2.40;;
13408;SDS011;6775;49.574;11.170;2023-01-24T06:39:45;4.60;;;2.47;;
13408;SDS011;6775;49.574;11.170;2023-01-24T06:42:16;3.73;;;2.37;;
13408;SDS011;6775;49.574;11.170;2023-01-24T06:44:45;3.27;;;2.30;;
13408;SDS011;6775;49.574;11.170;2023-01-24T06:47:13;2.40;;;2.00;;
13408;SDS011;6775;49.574;11.170;2023-01-24T06:49:41;2.67;;;2.03;;
13408;SDS011;6775;49.574;11.170;2023-01-24T06:52:11;4.23;;;2.40;;
13408;SDS011;6775;49.574;11.170;2023-01-24T06:54:39;4.10;;;2.33;;
13408;SDS011;6775;49.574;11.170;2023-01-24T06:57:07;2.83;;;2.07;;
13408;SDS011;6775;49.574;11.170;2023-01-24T06:59:35;2.43;;;1.97;;
13408;SDS011;6775;49.574;11.170;2023-01-24T07:02:02;5.17;;;2.63;;
13408;SDS011;6775;49.574;11.170;2023-01-24T07:04:30;4.57;;;2.93;;
13408;SDS011;6775;49.574;11.170;2023-01-24T07:06:58;5.90;;;3.03;;
13408;SDS011;6775;49.574;11.170;2023-01-24T07:09:27;4.43;;;2.70;;
13408;SDS011;6775;49.574;11.170;2023-01-24T07:11:55;3.63;;;2.60;;
13408;SDS011;6775;49.574;11.170;2023-01-24T07:14:24;4.70;;;2.77;;
13408;SDS011;6775;49.574;11.170;2023-01-24T07:16:52;3.50;;;2.30;;
13408;SDS011;6775;49.574;11.170;2023-01-24T07:19:22;3.53;;;2.60;;
13408;SDS011;6775;49.574;11.170;2023-01-24T07:21:51;3.40;;;2.17;;
13408;SDS011;6775;49.574;11.170;2023-01-24T07:24:24;3.27;;;2.50;;
13408;SDS011;6775;49.574;11.170;2023-01-24T07:26:54;4.93;;;2.50;;
13408;SDS011;6775;49.574;11.170;2023-01-24T07:29:23;2.93;;;2.40;;
13408;SDS011;6775;49.574;11.170;2023-01-24T07:31:51;4.43;;;3.10;;
13408;SDS011;6775;49.574;11.170;2023-01-24T07:34:20;4.80;;;3.20;;
13408;SDS011;6775;49.574;11.170;2023-01-24T07:36:48;3.87;;;2.80;;
13408;SDS011;6775;49.574;11.170;2023-01-24T07:39:15;4.57;;;2.90;;
13408;SDS011;6775;49.574;11.170;2023-01-24T07:41:43;4.40;;;3.13;;
13408;SDS011;6775;49.574;11.170;2023-01-24T07:44:13;3.40;;;2.97;;
13408;SDS011;6775;49.574;11.170;2023-01-24T07:46:41;4.90;;;3.20;;
13408;SDS011;6775;49.574;11.170;2023-01-24T07:49:08;3.90;;;2.83;;
13408;SDS011;6775;49.574;11.170;2023-01-24T07:51:36;3.90;;;2.73;;
13408;SDS011;6775;49.574;11.170;2023-01-24T07:54:06;5.57;;;3.40;;
13408;SDS011;6775;49.574;11.170;2023-01-24T07:56:35;7.57;;;3.83;;
13408;SDS011;6775;49.574;11.170;2023-01-24T07:59:03;4.23;;;3.17;;
13408;SDS011;6775;49.574;11.170;2023-01-24T08:01:33;4.17;;;2.80;;
13408;SDS011;6775;49.574;11.170;2023-01-24T08:04:00;5.37;;;3.77;;
13408;SDS011;6775;49.574;11.170;2023-01-24T08:06:28;5.53;;;3.50;;
13408;SDS011;6775;49.574;11.170;2023-01-24T08:08:56;5.33;;;3.47;;
13408;SDS011;6775;49.574;11.170;2023-01-24T08:11:24;3.40;;;2.60;;
13408;SDS011;6775;49.574;11.170;2023-01-24T08:13:52;3.87;;;2.80;;
13408;SDS011;6775;49.574;11.170;2023-01-24T08:16:20;4.07;;;2.73;;
13408;SDS011;6775;49.574;11.170;2023-01-24T08:18:51;3.53;;;3.00;;
13408;SDS011;6775;49.574;11.170;2023-01-24T08:21:21;3.77;;;2.83;;
13408;SDS011;6775;49.574;11.170;2023-01-24T08:23:53;4.13;;;3.03;;
13408;SDS011;6775;49.574;11.170;2023-01-24T08:26:22;5.13;;;3.00;;
13408;SDS011;6775;49.574;11.170;2023-01-24T08:28:50;4.30;;;3.30;;
13408;SDS011;6775;49.574;11.170;2023-01-24T08:31:18;3.50;;;2.70;;
13408;SDS011;6775;49.574;11.170;2023-01-24T08:33:46;5.57;;;3.13;;
13408;SDS011;6775;49.574;11.170;2023-01-24T08:36:15;4.03;;;3.00;;
13408;SDS011;6775;49.574;11.170;2023-01-24T08:38:42;5.23;;;3.47;;
13408;SDS011;6775;49.574;11.170;2023-01-24T08:41:10;5.17;;;3.57;;
13408;SDS011;6775;49.574;11.170;2023-01-24T08:43:38;4.93;;;3.53;;
13408;SDS011;6775;49.574;11.170;2023-01-24T08:46:06;4.17;;;3.30;;
13408;SDS011;6775;49.574;11.170;2023-01-24T08:48:34;4.73;;;2.97;;
13408;SDS011;6775;49.574;11.170;2023-01-24T08:51:02;4.60;;;3.27;;
13408;SDS011;6775;49.574;11.170;2023-01-24T08:53:31;3.97;;;3.00;;
13408;SDS011;6775;49.574;11.170;2023-01-24T08:56:00;4.60;;;3.20;;
13408;SDS011;6775;49.574;11.170;2023-01-24T08:58:28;3.93;;;3.07;;
13408;SDS011;6775;49.574;11.170;2023-01-24T09:00:58;4.47;;;3.73;;
13408;SDS011;6775;49.574;11.170;2023-01-24T09:03:26;4.70;;;3.10;;
13408;SDS011;6775;49.574;11.170;2023-01-24T09:05:55;5.03;;;3.57;;
13408;SDS011;6775;49.574;11.170;2023-01-24T09:08:23;4.50;;;3.20;;
13408;SDS011;6775;49.574;11.170;2023-01-24T09:10:52;5.23;;;3.37;;
13408;SDS011;6775;49.574;11.170;2023-01-24T09:13:20;3.13;;;2.77;;
13408;SDS011;6775;49.574;11.170;2023-01-24T09:15:48;5.43;;;3.63;;
13408;SDS011;6775;49.574;11.170;2023-01-24T09:18:18;4.77;;;3.53;;
13408;SDS011;6775;49.574;11.170;2023-01-24T09:20:46;5.13;;;3.37;;
13408;SDS011;6775;49.574;11.170;2023-01-24T09:23:14;5.17;;;3.10;;
13408;SDS011;6775;49.574;11.170;2023-01-24T09:25:48;4.17;;;3.60;;
13408;SDS011;6775;49.574;11.170;2023-01-24T09:28:18;4.13;;;3.00;;
13408;SDS011;6775;49.574;11.170;2023-01-24T09:30:47;4.37;;;3.33;;
13408;SDS011;6775;49.574;11.170;2023-01-24T09:33:15;4.67;;;3.23;;
13408;SDS011;6775;49.574;11.170;2023-01-24T09:35:50;4.67;;;3.23;;
13408;SDS011;6775;49.574;11.170;2023-01-24T09:38:19;3.93;;;3.30;;
13408;SDS011;6775;49.574;11.170;2023-01-24T09:40:50;5.63;;;3.67;;
13408;SDS011;6775;49.574;11.170;2023-01-24T09:43:30;4.97;;;3.37;;
13408;SDS011;6775;49.574;11.170;2023-01-24T09:46:23;4.97;;;3.10;;
13408;SDS011;6775;49.574;11.170;2023-01-24T09:48:59;4.33;;;3.33;;
13408;SDS011;6775;49.574;11.170;2023-01-24T09:51:31;4.17;;;3.20;;
13408;SDS011;6775;49.574;11.170;2023-01-24T09:54:02;5.60;;;3.30;;
13408;SDS011;6775;49.574;11.170;2023-01-24T09:56:33;4.77;;;3.43;;
13408;SDS011;6775;49.574;11.170;2023-01-24T09:59:10;5.47;;;3.93;;
13408;SDS011;6775;49.574;11.170;2023-01-24T10:01:42;6.67;;;3.60;;
13408;SDS011;6775;49.574;11.170;2023-01-24T10:04:13;4.07;;;3.13;;
13408;SDS011;6775;49.574;11.170;2023-01-24T10:07:10;5.17;;;3.50;;
13408;SDS011;6775;49.574;11.170;2023-01-24T10:09:56;5.77;;;3.67;;
13408;SDS011;6775;49.574;11.170;2023-01-24T10:12:34;5.20;;;3.57;;
13408;SDS011;6775;49.574;11.170;2023-01-24T10:15:12;5.53;;;3.80;;
13408;SDS011;6775;49.574;11.170;2023-01-24T10:17:52;6.33;;;3.77;;
13408;SDS011;6775;49.574;11.170;2023-01-24T10:20:41;4.93;;;3.77;;
13408;SDS011;6775;49.574;11.170;2023-01-24T10:23:19;5.90;;;3.90;;
13408;SDS011;6775;49.574;11.170;2023-01-24T10:25:51;4.53;;;3.70;;
13408;SDS011;6775;49.574;11.170;2023-01-24T10:28:23;4.47;;;3.33;;
13408;SDS011;6775;49.574;11.170;2023-01-24T10:30:56;5.10;;;3.63;;
13408;SDS011;6775;49.574;11.170;2023-01-24T10:33:29;5.10;;;3.43;;
13408;SDS011;6775;49.574;11.170;2023-01-24T10:36:02;6.17;;;3.73;;
13408;SDS011;6775;49.574;11.170;2023-01-24T10:38:37;5.07;;;3.53;;
13408;SDS011;6775;49.574;11.170;2023-01-24T10:41:16;6.23;;;3.97;;
13408;SDS011;6775;49.574;11.170;2023-01-24T10:43:48;5.47;;;4.10;;
13408;SDS011;6775;49.574;11.170;2023-01-24T10:49:24;7.27;;;4.17;;
13408;SDS011;6775;49.574;11.170;2023-01-24T10:52:06;5.23;;;4.17;;
13408;SDS011;6775;49.574;11.170;2023-01-24T10:54:42;7.13;;;4.23;;
13408;SDS011;6775;49.574;11.170;2023-01-24T10:57:32;4.77;;;3.50;;
13408;SDS011;6775;49.574;11.170;2023-01-24T11:00:04;6.77;;;3.83;;
13408;SDS011;6775;49.574;11.170;2023-01-24T11:02:47;5.50;;;3.77;;
13408;SDS011;6775;49.574;11.170;2023-01-24T11:05:18;5.60;;;3.93;;
13408;SDS011;6775;49.574;11.170;2023-01-24T11:07:48;6.17;;;4.47;;
13408;SDS011;6775;49.574;11.170;2023-01-24T11:10:19;5.07;;;4.07;;
13408;SDS011;6775;49.574;11.170;2023-01-24T11:12:49;6.30;;;4.03;;
13408;SDS011;6775;49.574;11.170;2023-01-24T11:15:22;7.80;;;4.10;;
13408;SDS011;6775;49.574;11.170;2023-01-24T11:17:53;5.40;;;4.20;;
13408;SDS011;6775;49.574;11.170;2023-01-24T11:20:31;5.80;;;3.73;;
13408;SDS011;6775;49.574;11.170;2023-01-24T11:23:01;5.67;;;4.30;;
13408;SDS011;6775;49.574;11.170;2023-01-24T11:25:52;5.93;;;3.97;;
13408;SDS011;6775;49.574;11.170;2023-01-24T11:28:24;6.10;;;4.07;;
13408;SDS011;6775;49.574;11.170;2023-01-24T11:30:52;6.07;;;4.33;;
13408;SDS011;6775;49.574;11.170;2023-01-24T11:33:33;6.50;;;4.10;;
13408;SDS011;6775;49.574;11.170;2023-01-24T11:36:24;6.23;;;3.90;;
13408;SDS011;6775;49.574;11.170;2023-01-24T11:39:09;7.67;;;4.33;;
13408;SDS011;6775;49.574;11.170;2023-01-24T11:41:45;6.60;;;4.17;;
13408;SDS011;6775;49.574;11.170;2023-01-24T11:47:17;5.50;;;4.30;;
13408;SDS011;6775;49.574;11.170;2023-01-24T11:50:04;6.23;;;4.30;;
13408;SDS011;6775;49.574;11.170;2023-01-24T11:52:58;5.13;;;3.77;;
13408;SDS011;6775;49.574;11.170;2023-01-24T11:55:38;7.20;;;4.80;;
13408;SDS011;6775;49.574;11.170;2023-01-24T11:58:23;5.03;;;4.27;;
13408;SDS011;6775;49.574;11.170;2023-01-24T12:01:03;5.97;;;4.50;;
13408;SDS011;6775;49.574;11.170;2023-01-24T12:03:45;6.00;;;4.23;;
13408;SDS011;6775;49.574;11.170;2023-01-24T12:06:25;6.67;;;4.47;;
13408;SDS011;6775;49.574;11.170;2023-01-24T12:09:04;6.57;;;3.80;;
13408;SDS011;6775;49.574;11.170;2023-01-24T12:11:44;5.20;;;3.73;;
13408;SDS011;6775;49.574;11.170;2023-01-24T12:14:46;5.70;;;4.10;;
13408;SDS011;6775;49.574;11.170;2023-01-24T12:17:33;6.97;;;4.67;;
13408;SDS011;6775;49.574;11.170;2023-01-24T12:20:13;6.23;;;4.47;;
13408;SDS011;6775;49.574;11.170;2023-01-24T12:22:59;6.50;;;4.93;;
13408;SDS011;6775;49.574;11.170;2023-01-24T12:25:34;6.03;;;4.50;;
13408;SDS011;6775;49.574;11.170;2023-01-24T12:28:06;6.10;;;4.60;;
13408;SDS011;6775;49.574;11.170;2023-01-24T12:30:42;6.37;;;4.80;;
13408;SDS011;6775;49.574;11.170;2023-01-24T12:33:16;7.27;;;4.60;;
13408;SDS011;6775;49.574;11.170;2023-01-24T12:35:50;7.17;;;4.53;;
13408;SDS011;6775;49.574;11.170;2023-01-24T12:38:24;6.50;;;4.83;;
13408;SDS011;6775;49.574;11.170;2023-01-24T12:41:08;6.97;;;4.60;;
13408;SDS011;6775;49.574;11.170;2023-01-24T12:43:46;6.30;;;4.73;;
13408;SDS011;6775;49.574;11.170;2023-01-24T12:46:24;6.67;;;4.43;;
13408;SDS011;6775;49.574;11.170;2023-01-24T12:48:58;6.03;;;4.60;;
13408;SDS011;6775;49.574;11.170;2023-01-24T12:51:42;7.43;;;4.00;;
13408;SDS011;6775;49.574;11.170;2023-01-24T12:54:15;6.50;;;4.23;;
13408;SDS011;6775;49.574;11.170;2023-01-24T12:56:49;6.17;;;4.20;;
13408;SDS011;6775;49.574;11.170;2023-01-24T12:59:24;7.23;;;4.83;;
13408;SDS011;6775;49.574;11.170;2023-01-24T13:02:01;7.00;;;4.77;;
13408;SDS011;6775;49.574;11.170;2023-01-24T13:05:05;8.10;;;5.10;;
13408;SDS011;6775;49.574;11.170;2023-01-24T13:07:47;9.30;;;5.43;;
13408;SDS011;6775;49.574;11.170;2023-01-24T13:10:25;7.37;;;5.40;;
13408;SDS011;6775;49.574;11.170;2023-01-24T13:13:01;6.47;;;4.40;;
13408;SDS011;6775;49.574;11.170;2023-01-24T13:15:31;5.57;;;4.30;;
13408;SDS011;6775;49.574;11.170;2023-01-24T13:18:13;5.70;;;4.30;;
13408;SDS011;6775;49.574;11.170;2023-01-24T13:20:54;6.13;;;4.63;;
13408;SDS011;6775;49.574;11.170;2023-01-24T13:23:31;6.53;;;4.77;;
13408;SDS011;6775;49.574;11.170;2023-01-24T13:29:15;7.33;;;4.90;;
13408;SDS011;6775;49.574;11.170;2023-01-24T13:31:53;6.47;;;4.60;;
13408;SDS011;6775;49.574;11.170;2023-01-24T13:34:30;6.20;;;4.50;;
13408;SDS011;6775;49.574;11.170;2023-01-24T13:36:59;6.97;;;4.10;;
13408;SDS011;6775;49.574;11.170;2023-01-24T13:39:31;7.83;;;4.90;;
13408;SDS011;6775;49.574;11.170;2023-01-24T13:42:03;6.47;;;4.37;;
13408;SDS011;6775;49.574;11.170;2023-01-24T13:44:33;7.53;;;4.80;;
13408;SDS011;6775;49.574;11.170;2023-01-24T13:47:03;5.60;;;4.27;;
13408;SDS011;6775;49.574;11.170;2023-01-24T13:50:01;6.70;;;4.93;;
13408;SDS011;6775;49.574;11.170;2023-01-24T13:52:42;5.03;;;4.10;;
13408;SDS011;6775;49.574;11.170;2023-01-24T13:58:24;6.97;;;4.70;;
13408;SDS011;6775;49.574;11.170;2023-01-24T14:00:56;6.57;;;4.63;;
13408;SDS011;6775;49.574;11.170;2023-01-24T14:03:29;6.07;;;4.17;;
13408;SDS011;6775;49.574;11.170;2023-01-24T14:06:06;5.77;;;4.00;;
13408;SDS011;6775;49.574;11.170;2023-01-24T14:08:49;6.17;;;4.50;;
13408;SDS011;6775;49.574;11.170;2023-01-24T14:11:39;6.33;;;4.50;;
13408;SDS011;6775;49.574;11.170;2023-01-24T14:14:26;6.57;;;4.30;;
13408;SDS011;6775;49.574;11.170;2023-01-24T14:17:01;6.83;;;5.00;;
13408;SDS011;6775;49.574;11.170;2023-01-24T14:19:34;7.37;;;5.00;;
13408;SDS011;6775;49.574;11.170;2023-01-24T14:22:05;6.53;;;4.53;;
13408;SDS011;6775;49.574;11.170;2023-01-24T14:24:51;5.70;;;3.90;;
13408;SDS011;6775;49.574;11.170;2023-01-24T14:27:26;7.80;;;4.17;;
13408;SDS011;6775;49.574;11.170;2023-01-24T14:29:59;5.73;;;4.20;;
13408;SDS011;6775;49.574;11.170;2023-01-24T14:32:45;6.53;;;4.37;;
13408;SDS011;6775;49.574;11.170;2023-01-24T14:35:17;6.10;;;4.40;;
13408;SDS011;6775;49.574;11.170;2023-01-24T14:37:48;8.43;;;5.20;;
13408;SDS011;6775;49.574;11.170;2023-01-24T14:40:19;7.63;;;4.83;;
13408;SDS011;6775;49.574;11.170;2023-01-24T14:42:48;6.23;;;4.17;;
13408;SDS011;6775;49.574;11.170;2023-01-24T14:45:18;6.73;;;5.00;;
13408;SDS011;6775;49.574;11.170;2023-01-24T14:47:51;5.77;;;4.63;;
13408;SDS011;6775;49.574;11.170;2023-01-24T14:50:24;7.10;;;4.93;;
13408;SDS011;6775;49.574;11.170;2023-01-24T14:52:53;8.00;;;5.03;;
13408;SDS011;6775;49.574;11.170;2023-01-24T14:55:32;6.90;;;5.10;;
13408;SDS011;6775;49.574;11.170;2023-01-24T14:58:14;6.07;;;4.70;;
13408;SDS011;6775;49.574;11.170;2023-01-24T15:00:46;5.37;;;4.80;;
13408;SDS011;6775;49.574;11.170;2023-01-24T15:03:17;6.33;;;4.47;;
13408;SDS011;6775;49.574;11.170;2023-01-24T15:05:49;7.27;;;4.60;;
13408;SDS011;6775;49.574;11.170;2023-01-24T15:08:22;7.50;;;5.27;;
13408;SDS011;6775;49.574;11.170;2023-01-24T15:10:53;8.43;;;5.27;;
13408;SDS011;6775;49.574;11.170;2023-01-24T15:13:24;6.60;;;4.80;;
13408;SDS011;6775;49.574;11.170;2023-01-24T15:15:54;8.33;;;5.93;;
13408;SDS011;6775;49.574;11.170;2023-01-24T15:18:28;7.07;;;5.40;;
13408;SDS011;6775;49.574;11.170;2023-01-24T15:21:05;7.20;;;5.10;;
13408;SDS011;6775;49.574;11.170;2023-01-24T15:23:33;7.40;;;5.20;;
13408;SDS011;6775;49.574;11.170;2023-01-24T15:26:20;6.33;;;4.97;;
13408;SDS011;6775;49.574;11.170;2023-01-24T15:32:18;6.53;;;4.50;;
13408;SDS011;6775;49.574;11.170;2023-01-24T15:34:49;6.37;;;4.67;;